Terminal Aerodrome Forecast
Issued by NWS

Home | Current Version | Previous Version | Text Only | Print | Product List | Glossary On
Versions: 1 2 3 4 5 6 7 8 9 10 11 12 13 14 15 16 17
812
FTUS41 KCAR 061124
TAFHUL
TAF
KHUL 061124Z 0612/0712 01009KT P6SM OVC015
     FM061600 01006KT P6SM SCT040
     FM062100 08004KT P6SM SCT250
     FM070200 15004KT P6SM SCT015=

USA.gov is the U.S. government's official web portal to all federal, state and local government web resources and services.